createdAt,value
2023-05-11T00:02:14.200Z,13.26
2023-05-11T00:04:42.795Z,13.26
2023-05-11T00:07:11.131Z,13.34
2023-05-11T00:09:41.718Z,13.24
2023-05-11T00:12:09.782Z,13.23
2023-05-11T00:14:39.455Z,13.22
2023-05-11T00:17:07.778Z,13.20
2023-05-11T00:19:35.873Z,13.18
2023-05-11T00:22:04.083Z,13.17
2023-05-11T00:24:32.168Z,13.17
2023-05-11T00:27:00.497Z,13.15
2023-05-11T00:29:28.803Z,13.15
2023-05-11T00:31:58.205Z,13.09
2023-05-11T00:34:26.892Z,13.06
2023-05-11T00:36:55.033Z,13.07
2023-05-11T00:39:23.098Z,13.05
2023-05-11T00:41:51.227Z,13.02
2023-05-11T00:44:19.788Z,12.98
2023-05-11T00:46:48.304Z,12.97
2023-05-11T00:49:21.477Z,12.94
2023-05-11T00:51:49.700Z,12.94
2023-05-11T00:54:17.789Z,12.90
2023-05-11T00:56:46.448Z,12.93
2023-05-11T00:59:14.820Z,12.92
2023-05-11T01:01:42.899Z,12.91
2023-05-11T01:04:11.545Z,12.91
2023-05-11T01:06:49.059Z,12.89
2023-05-11T01:09:29.892Z,12.92
2023-05-11T01:12:05.771Z,12.90
2023-05-11T01:14:39.923Z,12.89
2023-05-11T01:17:19.670Z,12.88
2023-05-11T01:19:54.404Z,12.88
2023-05-11T01:22:32.485Z,12.86
2023-05-11T01:25:12.641Z,12.83
2023-05-11T01:27:56.239Z,12.80
2023-05-11T01:30:31.880Z,12.81
2023-05-11T01:33:04.998Z,12.84
2023-05-11T01:35:36.685Z,12.78
2023-05-11T01:38:11.921Z,12.76
2023-05-11T01:40:42.321Z,12.73
2023-05-11T01:43:14.584Z,12.71
2023-05-11T01:45:50.629Z,12.71
2023-05-11T01:48:24.236Z,12.69
2023-05-11T01:50:57.059Z,12.67
2023-05-11T01:53:28.129Z,12.62
2023-05-11T01:55:58.404Z,12.61
2023-05-11T01:58:28.391Z,12.61
2023-05-11T02:01:00.647Z,12.61
2023-05-11T02:03:31.210Z,12.59
2023-05-11T02:06:01.703Z,12.57
2023-05-11T02:08:31.679Z,12.52
2023-05-11T02:11:02.056Z,12.53
2023-05-11T02:13:31.476Z,12.53
2023-05-11T02:16:04.696Z,12.56
2023-05-11T02:18:34.613Z,12.58
2023-05-11T02:21:04.087Z,12.58
2023-05-11T02:23:34.250Z,12.58
2023-05-11T02:26:07.559Z,12.58
2023-05-11T02:28:36.106Z,12.61
2023-05-11T02:31:13.646Z,12.63
2023-05-11T02:33:51.595Z,12.59
2023-05-11T02:36:23.700Z,12.58
2023-05-11T02:38:57.760Z,12.53
2023-05-11T02:41:29.372Z,12.53
2023-05-11T02:44:02.870Z,12.50
2023-05-11T02:46:37.375Z,12.38
2023-05-11T02:49:09.468Z,12.33
2023-05-11T02:51:39.380Z,12.35
2023-05-11T02:54:10.744Z,12.32
2023-05-11T02:56:40.130Z,12.36
2023-05-11T02:59:08.227Z,12.33
2023-05-11T03:01:40.150Z,12.33
2023-05-11T03:04:08.347Z,12.32
2023-05-11T03:06:37.858Z,12.33
2023-05-11T03:09:07.283Z,12.35
2023-05-11T03:11:38.298Z,12.36
2023-05-11T03:14:06.462Z,12.37
2023-05-11T03:16:35.773Z,12.36
2023-05-11T03:19:07.195Z,12.33
2023-05-11T03:21:38.358Z,12.32
2023-05-11T03:24:08.557Z,12.31
2023-05-11T03:26:37.853Z,12.32
2023-05-11T03:29:06.421Z,12.32
2023-05-11T03:31:34.508Z,12.31
2023-05-11T03:34:02.854Z,12.29
2023-05-11T03:36:34.033Z,12.29
2023-05-11T03:39:06.438Z,12.28
2023-05-11T03:41:36.161Z,12.29
2023-05-11T03:44:07.973Z,12.29
2023-05-11T03:46:40.321Z,12.30
2023-05-11T03:49:12.202Z,12.31
2023-05-11T03:51:43.127Z,12.33
2023-05-11T03:54:11.641Z,12.33
2023-05-11T03:56:40.285Z,12.32
2023-05-11T03:59:09.923Z,12.30
2023-05-11T04:01:38.411Z,12.30
2023-05-11T04:04:06.704Z,12.30
2023-05-11T04:06:35.109Z,12.31
2023-05-11T04:09:05.057Z,12.32
2023-05-11T04:11:36.721Z,12.30
2023-05-11T04:14:05.079Z,12.28
2023-05-11T04:16:33.263Z,12.29
2023-05-11T04:19:02.352Z,12.28
2023-05-11T04:21:30.796Z,12.28
2023-05-11T04:23:59.060Z,12.29
2023-05-11T04:26:28.440Z,12.31
2023-05-11T04:28:56.371Z,12.32
2023-05-11T04:31:24.708Z,12.40
2023-05-11T04:33:52.692Z,12.36
2023-05-11T04:36:22.446Z,12.30
2023-05-11T04:38:50.429Z,12.25
2023-05-11T04:41:18.291Z,12.23
2023-05-11T04:43:47.949Z,12.25
2023-05-11T04:46:16.455Z,12.27
2023-05-11T04:48:44.476Z,12.31
2023-05-11T04:51:12.820Z,12.32
2023-05-11T04:53:42.156Z,12.36
2023-05-11T04:56:10.273Z,12.37
2023-05-11T04:58:38.311Z,12.40
2023-05-11T05:01:07.804Z,12.39
2023-05-11T05:03:35.805Z,12.38
2023-05-11T05:06:04.105Z,12.38
2023-05-11T05:08:32.539Z,12.37
2023-05-11T05:11:00.807Z,12.38
2023-05-11T05:13:29.232Z,12.39
2023-05-11T05:15:57.530Z,12.39
2023-05-11T05:18:27.616Z,12.28
2023-05-11T05:20:55.865Z,12.28
2023-05-11T05:23:24.162Z,12.31
2023-05-11T05:25:52.114Z,12.32
2023-05-11T05:28:20.326Z,12.35
2023-05-11T05:30:48.523Z,12.37
2023-05-11T05:33:16.419Z,12.40
2023-05-11T05:35:46.855Z,12.44
2023-05-11T05:38:14.947Z,12.42
2023-05-11T05:40:43.302Z,12.38
2023-05-11T05:43:11.744Z,12.35
2023-05-11T05:45:39.835Z,12.37
2023-05-11T05:48:09.766Z,12.40
2023-05-11T05:50:38.658Z,12.35
2023-05-11T05:53:08.064Z,12.28
2023-05-11T05:55:36.118Z,12.27
2023-05-11T05:58:04.063Z,12.28
2023-05-11T06:00:32.358Z,12.28
2023-05-11T06:03:00.803Z,12.34
2023-05-11T06:05:29.169Z,12.36
2023-05-11T06:08:09.212Z,12.38
2023-05-11T06:10:40.571Z,12.31
2023-05-11T06:13:09.680Z,12.30
2023-05-11T06:15:37.781Z,12.26
2023-05-11T06:18:06.223Z,12.24
2023-05-11T06:20:34.164Z,12.30
2023-05-11T06:23:02.530Z,12.29
2023-05-11T06:25:30.585Z,12.32
2023-05-11T06:27:59.842Z,12.39
2023-05-11T06:30:28.251Z,12.34
2023-05-11T06:32:56.435Z,12.31
2023-05-11T06:35:24.802Z,12.36
2023-05-11T06:37:52.826Z,12.40
2023-05-11T06:40:21.056Z,12.45
2023-05-11T06:42:49.223Z,12.42
2023-05-11T06:45:19.217Z,12.42
2023-05-11T06:47:47.261Z,12.46
2023-05-11T06:50:15.789Z,12.46
2023-05-11T06:52:44.032Z,12.52
2023-05-11T06:55:15.121Z,12.48
2023-05-11T06:57:43.464Z,12.47
2023-05-11T07:00:12.361Z,12.40
2023-05-11T07:02:41.852Z,12.45
2023-05-11T07:05:10.441Z,12.41
2023-05-11T07:07:38.941Z,12.39
2023-05-11T07:10:08.103Z,12.40
2023-05-11T07:12:36.195Z,12.38
2023-05-11T07:15:04.936Z,12.39
2023-05-11T07:17:33.145Z,12.38
2023-05-11T07:20:02.914Z,12.45
2023-05-11T07:22:30.935Z,12.47
2023-05-11T07:24:58.931Z,12.54
2023-05-11T07:27:27.080Z,12.58
2023-05-11T07:29:55.256Z,12.58
2023-05-11T07:32:23.302Z,12.52
2023-05-11T07:34:51.365Z,12.47
2023-05-11T07:37:20.823Z,12.54
2023-05-11T07:39:49.198Z,12.56
2023-05-11T07:42:17.227Z,12.55
2023-05-11T07:44:45.519Z,12.65
2023-05-11T07:47:13.475Z,12.63
2023-05-11T07:49:43.878Z,12.66
2023-05-11T07:52:15.273Z,12.78
2023-05-11T07:54:45.042Z,12.78
2023-05-11T07:57:15.181Z,12.75
2023-05-11T07:59:43.744Z,12.79
2023-05-11T08:02:13.301Z,12.72
2023-05-11T08:04:45.012Z,12.68
2023-05-11T08:07:13.014Z,12.79
2023-05-11T08:09:41.209Z,12.81
2023-05-11T08:12:10.789Z,12.75
2023-05-11T08:14:39.088Z,12.82
2023-05-11T08:17:07.522Z,12.71
2023-05-11T08:19:35.497Z,12.79
2023-05-11T08:22:03.432Z,12.83
2023-05-11T08:24:31.744Z,12.91
2023-05-11T08:27:00.006Z,12.86
2023-05-11T08:29:29.682Z,12.75
2023-05-11T08:31:58.792Z,12.82
2023-05-11T08:34:27.313Z,12.86
2023-05-11T08:37:01.608Z,12.82
2023-05-11T08:39:46.723Z,12.79
2023-05-11T08:42:18.216Z,12.84
2023-05-11T08:44:49.342Z,12.87
2023-05-11T08:47:23.287Z,12.78
2023-05-11T08:49:52.842Z,12.87
2023-05-11T08:52:21.792Z,12.86
2023-05-11T08:54:49.901Z,13.01
2023-05-11T08:57:18.915Z,12.98
2023-05-11T08:59:49.810Z,13.00
2023-05-11T09:02:19.803Z,12.98
2023-05-11T09:04:49.154Z,12.97
2023-05-11T09:07:18.878Z,13.02
2023-05-11T09:09:48.168Z,13.02
2023-05-11T09:12:16.889Z,12.98
2023-05-11T09:14:46.706Z,13.05
2023-05-11T09:17:16.217Z,13.07
2023-05-11T09:20:01.112Z,13.09
2023-05-11T09:22:31.022Z,13.14
2023-05-11T09:25:03.554Z,13.07
2023-05-11T09:27:32.450Z,13.10
2023-05-11T09:30:13.369Z,13.13
2023-05-11T09:32:54.762Z,13.13
2023-05-11T09:35:27.238Z,13.03
2023-05-11T09:38:04.797Z,13.11
2023-05-11T09:40:37.439Z,13.10
2023-05-11T09:43:17.360Z,13.11
2023-05-11T09:45:46.855Z,13.10
2023-05-11T09:48:27.348Z,13.15
2023-05-11T09:51:02.718Z,13.17
2023-05-11T09:53:39.238Z,13.17
2023-05-11T09:56:08.973Z,13.22
2023-05-11T09:58:58.390Z,13.24
2023-05-11T10:01:34.589Z,13.25
2023-05-11T10:04:17.798Z,13.28
2023-05-11T10:06:53.107Z,13.33
2023-05-11T10:09:25.999Z,13.36
2023-05-11T10:11:56.661Z,13.39
2023-05-11T10:14:26.171Z,13.34
2023-05-11T10:16:58.133Z,13.38
2023-05-11T10:19:28.620Z,13.34
2023-05-11T10:21:58.408Z,13.32
2023-05-11T10:24:27.185Z,13.23
2023-05-11T10:26:57.398Z,13.24
2023-05-11T10:29:30.138Z,13.18
2023-05-11T10:32:00.173Z,13.16
2023-05-11T10:34:30.304Z,13.07
2023-05-11T10:37:02.696Z,13.02
2023-05-11T10:39:31.750Z,13.00
2023-05-11T10:42:36.378Z,13.06
2023-05-11T10:45:21.751Z,13.09
2023-05-11T10:48:27.322Z,13.21
2023-05-11T10:51:12.208Z,13.29
2023-05-11T10:54:00.449Z,13.42
2023-05-11T10:56:44.007Z,13.48
2023-05-11T10:59:30.970Z,13.56
2023-05-11T11:02:01.749Z,13.49
2023-05-11T11:04:44.461Z,13.46
2023-05-11T11:07:18.384Z,13.32
2023-05-11T11:09:57.727Z,13.42
2023-05-11T11:12:27.384Z,13.34
2023-05-11T11:14:57.278Z,13.27
2023-05-11T11:17:27.881Z,13.34
2023-05-11T11:19:57.756Z,13.29
2023-05-11T11:22:48.184Z,13.36
2023-05-11T11:25:37.593Z,13.43
2023-05-11T11:28:05.764Z,13.41
2023-05-11T11:30:33.914Z,13.37
2023-05-11T11:33:34.620Z,13.39
2023-05-11T11:36:03.169Z,13.36
2023-05-11T11:38:34.363Z,13.35
2023-05-11T11:41:03.548Z,13.32
2023-05-11T11:43:46.235Z,13.32
2023-05-11T11:46:28.908Z,13.28
2023-05-11T11:49:09.238Z,13.25
2023-05-11T11:51:40.530Z,13.31
2023-05-11T11:54:13.474Z,13.32
2023-05-11T11:56:45.923Z,13.31
2023-05-11T11:59:15.600Z,13.39
2023-05-11T12:01:45.890Z,13.44
2023-05-11T12:04:53.050Z,13.44
2023-05-11T12:07:22.716Z,13.48
2023-05-11T12:09:52.986Z,13.48
2023-05-11T12:12:22.705Z,13.46
2023-05-11T12:14:51.060Z,13.53
2023-05-11T12:17:28.270Z,13.51
2023-05-11T12:19:57.509Z,13.58
2023-05-11T12:22:26.486Z,13.67
2023-05-11T12:25:00.496Z,13.68
2023-05-11T12:27:28.645Z,13.76
2023-05-11T12:29:57.355Z,13.78
2023-05-11T12:32:29.783Z,13.79
2023-05-11T12:35:02.392Z,13.78
2023-05-11T12:37:31.013Z,13.78
2023-05-11T12:40:01.041Z,13.75
2023-05-11T12:42:29.468Z,13.90
2023-05-11T12:44:57.927Z,13.98
2023-05-11T12:47:26.157Z,13.96
2023-05-11T12:49:54.477Z,13.97
2023-05-11T12:52:25.247Z,13.99
2023-05-11T12:54:55.079Z,14.08
2023-05-11T12:57:29.738Z,14.09
2023-05-11T13:00:10.295Z,14.16
2023-05-11T13:02:46.332Z,14.22
2023-05-11T13:05:15.289Z,14.26
2023-05-11T13:07:44.486Z,14.18
2023-05-11T13:10:14.063Z,14.20
2023-05-11T13:12:54.062Z,14.22
2023-05-11T13:15:24.441Z,14.42
2023-05-11T13:17:58.934Z,14.45
2023-05-11T13:20:29.419Z,14.45
2023-05-11T13:23:06.427Z,14.50
2023-05-11T13:25:35.673Z,14.59
2023-05-11T13:28:05.657Z,14.69
2023-05-11T13:30:35.295Z,14.69
2023-05-11T13:33:03.883Z,14.63
2023-05-11T13:35:32.224Z,14.66
2023-05-11T13:38:00.546Z,14.70
2023-05-11T13:40:29.970Z,14.78
2023-05-11T13:42:58.297Z,14.93
2023-05-11T13:45:28.437Z,14.87
2023-05-11T13:47:56.717Z,14.90
2023-05-11T13:50:25.706Z,15.04
2023-05-11T13:52:54.632Z,15.12
2023-05-11T13:55:22.554Z,15.02
2023-05-11T13:57:50.797Z,15.08
2023-05-11T14:00:19.758Z,15.02
2023-05-11T14:02:50.818Z,15.02
2023-05-11T14:05:19.601Z,15.04
2023-05-11T14:07:48.948Z,14.91
2023-05-11T14:10:17.924Z,14.96
2023-05-11T14:12:46.823Z,14.93
2023-05-11T14:15:15.096Z,14.93
2023-05-11T14:17:43.518Z,14.88
2023-05-11T14:20:14.830Z,14.99
2023-05-11T14:22:43.074Z,14.98
2023-05-11T14:25:11.767Z,14.79
2023-05-11T14:27:39.718Z,14.88
2023-05-11T14:30:09.543Z,14.89
2023-05-11T14:32:38.001Z,14.87
2023-05-11T14:35:06.702Z,14.86
2023-05-11T14:37:38.924Z,14.73
2023-05-11T14:40:08.205Z,14.74
2023-05-11T14:42:36.286Z,14.84
2023-05-11T14:45:04.515Z,14.78
2023-05-11T14:47:32.604Z,14.91
2023-05-11T14:50:00.923Z,14.88
2023-05-11T14:52:28.982Z,14.82
2023-05-11T14:54:58.732Z,14.82
2023-05-11T14:57:26.847Z,14.90
2023-05-11T15:00:00.113Z,14.89
2023-05-11T15:02:29.764Z,14.79
2023-05-11T15:04:57.911Z,14.78
2023-05-11T15:07:27.285Z,14.81
2023-05-11T15:09:56.064Z,14.81
2023-05-11T15:12:25.514Z,14.71
2023-05-11T15:14:53.938Z,14.67
2023-05-11T15:17:22.121Z,14.53
2023-05-11T15:19:50.406Z,14.67
2023-05-11T15:22:19.258Z,14.60
2023-05-11T15:24:47.647Z,14.58
2023-05-11T15:27:16.242Z,14.50
2023-05-11T15:29:53.631Z,14.49
2023-05-11T15:32:21.844Z,14.44
2023-05-11T15:34:59.231Z,14.41
2023-05-11T15:37:29.583Z,14.43
2023-05-11T15:40:01.997Z,14.44
2023-05-11T15:42:30.211Z,14.52
2023-05-11T15:45:00.143Z,14.47
2023-05-11T15:47:29.090Z,14.50
2023-05-11T15:49:57.159Z,14.49
2023-05-11T15:52:25.410Z,14.35
2023-05-11T15:54:53.369Z,14.37
2023-05-11T15:57:21.513Z,14.41
2023-05-11T15:59:50.487Z,14.47
2023-05-11T16:02:21.170Z,14.45
2023-05-11T16:04:49.359Z,14.41
2023-05-11T16:07:19.277Z,14.37
2023-05-11T16:09:47.263Z,14.36
2023-05-11T16:12:15.790Z,14.27
2023-05-11T16:14:43.824Z,14.36
2023-05-11T16:17:14.274Z,14.31
2023-05-11T16:19:43.899Z,14.32
2023-05-11T16:22:12.160Z,14.30
2023-05-11T16:24:40.170Z,14.27
2023-05-11T16:27:08.205Z,14.32
2023-05-11T16:29:36.197Z,14.29
2023-05-11T16:32:04.701Z,14.33
2023-05-11T16:34:32.743Z,14.21
2023-05-11T16:37:02.267Z,14.16
2023-05-11T16:39:30.523Z,14.12
2023-05-11T16:41:58.482Z,14.16
2023-05-11T16:44:26.798Z,14.13
2023-05-11T16:46:54.996Z,14.17
2023-05-11T16:49:23.495Z,14.18
2023-05-11T16:51:52.805Z,14.08
2023-05-11T16:54:22.348Z,14.12
2023-05-11T16:56:51.585Z,14.15
2023-05-11T16:59:20.132Z,14.17
2023-05-11T17:01:50.889Z,14.11
2023-05-11T17:04:22.848Z,14.10
2023-05-11T17:06:57.913Z,14.11
2023-05-11T17:09:30.554Z,14.09
2023-05-11T17:12:04.589Z,14.01
2023-05-11T17:14:33.337Z,14.01
2023-05-11T17:17:07.180Z,14.00
2023-05-11T17:19:46.716Z,14.00
2023-05-11T17:22:19.232Z,14.04
2023-05-11T17:24:48.891Z,14.02
2023-05-11T17:27:17.515Z,14.02
2023-05-11T17:29:47.777Z,13.96
2023-05-11T17:32:17.271Z,13.98
2023-05-11T17:34:51.043Z,13.97
2023-05-11T17:37:30.712Z,13.87
2023-05-11T17:40:01.809Z,13.88
2023-05-11T17:42:31.416Z,13.74
2023-05-11T17:44:59.756Z,13.73
2023-05-11T17:47:29.545Z,13.66
2023-05-11T17:49:57.857Z,13.54
2023-05-11T17:52:26.309Z,13.57
2023-05-11T17:54:57.242Z,13.50
2023-05-11T17:57:27.081Z,13.48
2023-05-11T17:59:55.440Z,13.44
2023-05-11T18:02:23.575Z,13.39
2023-05-11T18:04:54.640Z,13.41
2023-05-11T18:07:22.623Z,13.39
2023-05-11T18:09:50.627Z,13.29
2023-05-11T18:12:18.798Z,13.35
2023-05-11T18:14:48.348Z,13.20
2023-05-11T18:17:17.296Z,13.27
2023-05-11T18:19:45.523Z,13.22
2023-05-11T18:22:14.937Z,13.18
2023-05-11T18:24:43.043Z,13.19
2023-05-11T18:27:11.349Z,13.21
2023-05-11T18:29:39.406Z,13.18
2023-05-11T18:32:10.310Z,13.22
2023-05-11T18:34:41.131Z,13.20
2023-05-11T18:37:09.680Z,13.22
2023-05-11T18:39:38.053Z,13.21
2023-05-11T18:42:09.486Z,13.20
2023-05-11T18:44:40.793Z,13.18
2023-05-11T18:47:11.173Z,13.20
2023-05-11T18:49:41.913Z,13.15
2023-05-11T18:55:15.857Z,13.09
2023-05-11T18:57:52.123Z,13.01
2023-05-11T19:00:23.309Z,12.96
2023-05-11T19:02:52.079Z,12.95
2023-05-11T19:05:24.652Z,12.97
2023-05-11T19:08:03.157Z,12.96
2023-05-11T19:10:40.332Z,12.93
2023-05-11T19:13:09.281Z,12.92
2023-05-11T19:15:44.158Z,12.90
2023-05-11T19:18:16.613Z,12.92
2023-05-11T19:20:59.683Z,12.89
2023-05-11T19:23:27.826Z,12.88
2023-05-11T19:25:59.572Z,12.84
2023-05-11T19:28:38.281Z,12.81
2023-05-11T19:31:21.933Z,12.77
2023-05-11T19:33:55.256Z,12.77
2023-05-11T19:36:25.096Z,12.78
2023-05-11T19:39:01.125Z,12.80
2023-05-11T19:41:34.368Z,12.73
2023-05-11T19:44:10.169Z,12.67
2023-05-11T19:46:46.885Z,12.64
2023-05-11T19:49:24.693Z,12.60
2023-05-11T19:51:52.646Z,12.56
2023-05-11T19:54:23.472Z,12.48
2023-05-11T19:56:57.701Z,12.45
2023-05-11T19:59:32.915Z,12.43
2023-05-11T20:02:04.326Z,12.44
2023-05-11T20:04:35.829Z,12.42
2023-05-11T20:07:07.209Z,12.43
2023-05-11T20:09:42.638Z,12.42
2023-05-11T20:12:14.307Z,12.38
2023-05-11T20:14:44.721Z,12.35
2023-05-11T20:17:12.935Z,12.35
2023-05-11T20:19:40.839Z,12.35
2023-05-11T20:22:13.433Z,12.35
2023-05-11T20:24:47.255Z,12.35
2023-05-11T20:27:16.578Z,12.30
2023-05-11T20:29:44.660Z,12.33
2023-05-11T20:32:15.555Z,12.34
2023-05-11T20:34:48.240Z,12.39
2023-05-11T20:37:19.384Z,12.34
2023-05-11T20:39:51.537Z,12.34
2023-05-11T20:42:24.062Z,12.35
2023-05-11T20:44:55.251Z,12.34
2023-05-11T20:47:24.485Z,12.35
2023-05-11T20:49:57.316Z,12.35
2023-05-11T20:52:27.677Z,12.32
2023-05-11T20:54:57.651Z,12.33
2023-05-11T20:57:31.649Z,12.34
2023-05-11T21:00:05.118Z,12.36
2023-05-11T21:02:36.907Z,12.36
2023-05-11T21:05:05.285Z,12.37
2023-05-11T21:07:35.115Z,12.37
2023-05-11T21:10:08.025Z,12.38
2023-05-11T21:12:37.380Z,12.35
2023-05-11T21:15:11.727Z,12.38
2023-05-11T21:17:47.324Z,12.35
2023-05-11T21:20:15.433Z,12.29
2023-05-11T21:22:47.927Z,12.29
2023-05-11T21:25:26.240Z,12.23
2023-05-11T21:27:56.650Z,12.18
2023-05-11T21:30:30.223Z,12.12
2023-05-11T21:33:00.170Z,12.12
2023-05-11T21:35:28.949Z,12.14
2023-05-11T21:37:57.549Z,12.14
2023-05-11T21:40:27.413Z,12.07
2023-05-11T21:43:00.723Z,12.05
2023-05-11T21:45:41.633Z,12.02
2023-05-11T21:48:12.127Z,11.99
2023-05-11T21:50:42.023Z,12.01
2023-05-11T21:53:10.809Z,12.03
2023-05-11T21:55:44.580Z,12.05
2023-05-11T21:58:14.436Z,12.01
2023-05-11T22:00:44.271Z,11.98
2023-05-11T22:03:12.463Z,11.97
2023-05-11T22:05:43.132Z,11.99
2023-05-11T22:08:15.553Z,11.96
2023-05-11T22:10:55.273Z,11.95
2023-05-11T22:13:24.809Z,11.92
2023-05-11T22:15:52.869Z,11.93
2023-05-11T22:18:23.656Z,11.93
2023-05-11T22:20:51.566Z,11.94
2023-05-11T22:23:33.487Z,11.94
2023-05-11T22:26:01.410Z,11.97
2023-05-11T22:28:33.881Z,11.95
2023-05-11T22:31:06.175Z,11.97
2023-05-11T22:33:37.710Z,11.96
2023-05-11T22:36:09.398Z,11.94
2023-05-11T22:38:38.251Z,11.93
2023-05-11T22:41:09.484Z,11.91
2023-05-11T22:43:41.459Z,11.93
2023-05-11T22:46:14.301Z,11.94
2023-05-11T22:48:48.542Z,11.93
2023-05-11T22:51:29.966Z,11.94
2023-05-11T22:54:11.104Z,11.90
2023-05-11T22:56:43.244Z,11.92
2023-05-11T22:59:14.697Z,11.90
2023-05-11T23:01:42.688Z,11.86
2023-05-11T23:04:11.046Z,11.81
2023-05-11T23:06:47.480Z,11.77
2023-05-11T23:09:18.604Z,11.71
2023-05-11T23:11:48.807Z,11.68
2023-05-11T23:14:21.074Z,11.57
2023-05-11T23:17:01.914Z,11.47
2023-05-11T23:19:30.013Z,11.46
2023-05-11T23:21:57.875Z,11.41
2023-05-11T23:24:25.730Z,11.40
2023-05-11T23:27:05.826Z,11.38
2023-05-11T23:29:35.305Z,11.39
2023-05-11T23:32:03.750Z,11.45
2023-05-11T23:34:34.828Z,11.48
2023-05-11T23:37:04.386Z,11.51
2023-05-11T23:39:34.051Z,11.53
2023-05-11T23:42:07.674Z,11.54
2023-05-11T23:44:39.916Z,11.57
2023-05-11T23:47:08.959Z,11.58
2023-05-11T23:49:39.468Z,11.65
2023-05-11T23:52:10.898Z,11.66
2023-05-11T23:54:42.392Z,11.64
2023-05-11T23:57:10.207Z,11.63
2023-05-11T23:59:42.530Z,11.55
